Terminal Aerodrome Forecast
Issued by NWS

Home | Current Version | Previous Version | Text Only | Print | Product List | Glossary Off
Versions: 1 2 3 4 5 6 7 8 9 10 11 12 13 14 15 16

000
FTUS41 KCLE 181504 AAA
TAFFDY
TAF AMD
KFDY 181504Z 1815/1912 06015KT P6SM BKN200
     FM181800 07016G26KT P6SM BKN050
      TEMPO 1818/1821 5SM -SHRA BR OVC030
     FM182100 07018G28KT 6SM -SHRA BR OVC030
      TEMPO 1821/1824 5SM -SHRA BR OVC025
     FM190000 08020G30KT 4SM -SHRA BR OVC015
     FM190400 13018G28KT 4SM -SHRA BR OVC007
     FM191000 14014KT 6SM -SHRA OVC012=

USA.gov is the U.S. government's official web portal to all federal, state and local government web resources and services.